createdAt,value
2022-12-11T00:14:06.817Z,18.05
2022-12-11T00:29:14.876Z,18.25
2022-12-11T00:44:16.628Z,18.23
2022-12-11T00:59:18.458Z,18.31
2022-12-11T01:14:20.274Z,18.21
2022-12-11T01:29:22.653Z,18.22
2022-12-11T01:44:24.381Z,18.33
2022-12-11T01:59:28.794Z,18.53
2022-12-11T02:15:01.482Z,18.37
2022-12-11T02:30:16.326Z,18.27
2022-12-11T02:45:19.828Z,18.09
2022-12-11T03:00:22.050Z,18.04
2022-12-11T03:15:34.158Z,18.12
2022-12-11T03:30:37.670Z,18.11
2022-12-11T03:45:41.414Z,18.01
2022-12-11T04:00:43.636Z,18.14
2022-12-11T04:15:45.477Z,18.16
2022-12-11T04:30:50.904Z,18.28
2022-12-11T04:46:01.691Z,18.38
2022-12-11T05:01:11.300Z,18.31
2022-12-11T05:16:15.752Z,18.36
2022-12-11T05:31:20.808Z,18.41
2022-12-11T05:46:29.230Z,18.32
2022-12-11T06:01:35.948Z,18.32
2022-12-11T06:16:38.506Z,17.95
2022-12-11T06:31:40.947Z,18.16
2022-12-11T06:46:42.921Z,18.12
2022-12-11T07:01:45.566Z,18.41
2022-12-11T07:16:47.403Z,18.39
2022-12-11T07:31:49.615Z,18.61
2022-12-11T07:46:51.510Z,18.93
2022-12-11T08:01:53.381Z,18.96
2022-12-11T08:16:55.904Z,18.90
2022-12-11T08:31:58.213Z,18.93
2022-12-11T08:47:00.097Z,18.88
2022-12-11T09:02:01.886Z,19.00
2022-12-11T09:17:08.145Z,19.07
2022-12-11T09:32:10.265Z,18.91
2022-12-11T09:47:23.462Z,19.30
2022-12-11T10:02:47.265Z,19.48
2022-12-11T10:17:49.992Z,20.30
2022-12-11T10:33:11.969Z,19.93
2022-12-11T10:48:13.789Z,19.67
2022-12-11T11:03:26.864Z,19.69
2022-12-11T11:18:30.699Z,19.51
2022-12-11T11:33:35.770Z,19.39
2022-12-11T11:49:00.501Z,18.77
2022-12-11T12:04:04.071Z,18.70
2022-12-11T12:19:39.952Z,18.88
2022-12-11T12:34:57.219Z,18.40
2022-12-11T12:50:01.385Z,18.41
2022-12-11T13:05:18.564Z,18.50
2022-12-11T13:20:29.065Z,18.47
2022-12-11T13:35:33.477Z,18.33
2022-12-11T13:50:36.307Z,18.53
2022-12-11T14:05:38.273Z,18.42
2022-12-11T14:20:40.132Z,18.34
2022-12-11T14:35:44.096Z,18.34
2022-12-11T14:50:54.119Z,18.48
2022-12-11T15:05:58.596Z,18.17
2022-12-11T15:21:03.604Z,17.97
2022-12-11T15:36:22.437Z,17.56
2022-12-11T15:51:25.419Z,17.54
2022-12-11T16:06:27.260Z,17.58
2022-12-11T16:21:29.080Z,17.38
2022-12-11T16:36:31.495Z,17.34
2022-12-11T16:51:33.332Z,17.17
2022-12-11T17:06:35.293Z,16.94
2022-12-11T17:21:37.189Z,17.01
2022-12-11T17:36:39.455Z,17.18
2022-12-11T17:51:41.260Z,17.27
2022-12-11T18:06:43.120Z,17.44
2022-12-11T18:21:45.876Z,17.06
2022-12-11T18:36:48.078Z,17.06
2022-12-11T18:51:50.078Z,16.68
2022-12-11T19:06:51.874Z,16.66
2022-12-11T19:21:53.696Z,16.33
2022-12-11T19:36:56.510Z,16.36
2022-12-11T19:51:58.443Z,15.94
2022-12-11T20:07:00.244Z,16.17
2022-12-11T20:22:02.188Z,16.02
2022-12-11T20:37:04.618Z,15.86
2022-12-11T20:52:06.802Z,15.89
2022-12-11T21:07:09.960Z,15.98
2022-12-11T21:22:11.773Z,15.94
2022-12-11T21:37:13.915Z,15.79
2022-12-11T21:52:15.735Z,15.72
2022-12-11T22:07:17.543Z,15.86
2022-12-11T22:22:19.794Z,16.12
2022-12-11T22:37:21.655Z,15.95
2022-12-11T22:52:23.457Z,15.88
2022-12-11T23:07:25.382Z,16.00
2022-12-11T23:22:27.204Z,16.02
2022-12-11T23:37:29.194Z,16.32
2022-12-11T23:52:30.995Z,16.27
